Time;durP1;ratioP1;P1;durP2;ratioP2;P2;SDS_P1;SDS_P2;PMS_P1;PMS_P2;Temp;Humidity;BMP_temperature;BMP_pressure;BME280_temperature;BME280_humidity;BME280_pressure;Samples;Min_cycle;Max_cycle;Signal;HPM_P1;HPM_P2
2022/01/11 00:01:30;;;;;;;2.05;1.95;;;;;;;1.94;77.36;102461.88;5151525;28;20597;-82
2022/01/11 00:04:00;;;;;;;2.40;2.25;;;;;;;1.82;77.30;102468.38;5171258;28;20385;-82
2022/01/11 00:06:38;;;;;;;0.52;0.52;;;;;;;1.93;77.76;102476.53;5152949;28;20293;-82
2022/01/11 00:09:20;;;;;;;1.90;1.80;;;;;;;1.91;78.11;102477.28;5152632;28;20407;-82
2022/01/11 00:11:51;;;;;;;0.98;0.98;;;;;;;1.94;78.28;102482.59;5146533;28;20035;-81
2022/01/11 00:14:25;;;;;;;1.33;1.33;;;;;;;1.95;78.03;102479.16;5168370;28;20084;-81
2022/01/11 00:16:55;;;;;;;;;;;;;;;2.01;78.01;102482.84;5189003;28;20041;-81
2022/01/11 00:19:28;;;;;;;2.15;2.05;;;;;;;2.00;78.01;102482.81;5183177;28;19920;-82
2022/01/11 00:22:01;;;;;;;3.50;2.67;;;;;;;2.02;77.51;102489.81;5146285;28;20050;-81
2022/01/11 00:24:33;;;;;;;1.02;1.02;;;;;;;1.97;78.00;102485.28;5166375;28;20037;-82
2022/01/11 00:27:08;;;;;;;3.00;2.80;;;;;;;2.04;78.03;102484.66;5146454;28;20034;-80
2022/01/11 00:29:41;;;;;;;2.08;1.98;;;;;;;2.10;77.51;102477.16;5175578;28;20033;-82
2022/01/11 00:32:16;;;;;;;1.98;1.85;;;;;;;2.07;78.13;102484.78;5152706;28;20049;-81
2022/01/11 00:34:49;;;;;;;0.98;0.95;;;;;;;2.09;77.88;102477.97;5168692;28;20439;-81
2022/01/11 00:37:21;;;;;;;5.30;1.65;;;;;;;2.09;78.07;102477.97;5151173;28;20034;-81
2022/01/11 00:39:52;;;;;;;1.20;1.20;;;;;;;2.07;78.24;102489.09;5186014;28;20037;-81
2022/01/11 00:42:23;;;;;;;2.30;2.10;;;;;;;2.11;77.84;102491.84;5189070;28;20041;-82
2022/01/11 00:44:54;;;;;;;1.95;1.85;;;;;;;2.09;78.00;102492.63;5172190;28;20045;-82
2022/01/11 00:47:24;;;;;;;2.83;2.53;;;;;;;2.04;77.85;102476.91;5194941;28;20135;-82
2022/01/11 00:49:55;;;;;;;1.13;0.77;;;;;;;2.14;77.89;102489.38;5186000;28;20037;-82
2022/01/11 00:52:26;;;;;;;1.50;1.40;;;;;;;2.09;77.79;102487.44;5172668;28;20393;-82
2022/01/11 00:54:56;;;;;;;1.55;1.55;;;;;;;2.10;78.23;102491.78;5182037;28;20053;-82
2022/01/11 00:57:27;;;;;;;5.03;2.35;;;;;;;2.09;77.96;102501.28;5189044;28;20037;-82
2022/01/11 00:59:58;;;;;;;8.00;4.53;;;;;;;2.13;77.90;102497.97;5152226;28;20109;-82
2022/01/11 01:02:31;;;;;;;0.98;0.98;;;;;;;2.09;78.43;102496.09;5169725;28;20042;-81
2022/01/11 01:05:03;;;;;;;4.95;3.20;;;;;;;2.10;78.00;102497.88;5162594;28;20121;-82
2022/01/11 01:07:34;;;;;;;0.80;0.80;;;;;;;2.01;78.35;102497.53;5168985;28;20060;-82
2022/01/11 01:10:13;;;;;;;0.80;0.80;;;;;;;2.09;78.24;102498.69;5179019;28;20043;-81
2022/01/11 01:12:46;;;;;;;3.15;2.95;;;;;;;2.22;77.77;102497.44;5155894;28;20026;-82
2022/01/11 01:15:18;;;;;;;0.73;0.73;;;;;;;2.17;77.44;102497.25;5143821;28;20059;-82
2022/01/11 01:17:49;;;;;;;2.47;2.28;;;;;;;2.20;77.77;102502.53;5164945;28;20030;-82
2022/01/11 01:20:22;;;;;;;3.90;3.53;;;;;;;2.23;77.41;102503.47;5146561;28;20344;-82
2022/01/11 01:22:55;;;;;;;1.55;1.45;;;;;;;2.14;77.83;102517.00;5166284;28;20033;-82
2022/01/11 01:25:26;;;;;;;1.25;1.25;;;;;;;2.16;78.08;102516.22;5161296;28;20132;-83
2022/01/11 01:27:57;;;;;;;4.47;1.67;;;;;;;2.13;77.96;102526.44;5165422;28;20483;-83
2022/01/11 01:30:28;;;;;;;1.17;1.17;;;;;;;2.15;77.50;102527.41;5159141;28;20042;-83
2022/01/11 01:32:58;;;;;;;2.55;2.38;;;;;;;2.19;77.67;102529.25;5161488;28;20110;-83
2022/01/11 01:35:34;;;;;;;1.63;1.52;;;;;;;2.18;77.37;102532.69;5185196;28;20472;-82
2022/01/11 01:38:07;;;;;;;12.80;5.50;;;;;;;2.21;77.23;102539.69;5171431;28;20037;-82
2022/01/11 01:40:44;;;;;;;3.70;3.40;;;;;;;2.14;77.82;102533.41;5160920;28;20074;-81
2022/01/11 01:43:17;;;;;;;3.10;2.88;;;;;;;2.05;78.18;102540.81;5147161;28;20378;-81
2022/01/11 01:45:52;;;;;;;2.95;2.50;;;;;;;2.02;78.26;102536.41;5147610;28;20046;-82
2022/01/11 01:48:23;;;;;;;2.05;1.95;;;;;;;2.02;78.44;102543.31;5165649;28;20478;-82
2022/01/11 01:50:56;;;;;;;0.90;0.90;;;;;;;2.11;78.31;102543.63;5142228;28;20450;-82
2022/01/11 01:53:27;;;;;;;7.25;3.90;;;;;;;2.08;78.27;102548.72;5149499;28;20406;-82
2022/01/11 01:55:58;;;;;;;2.10;1.98;;;;;;;2.06;78.43;102550.34;5157146;28;20035;-82
2022/01/11 01:58:31;;;;;;;1.83;1.73;;;;;;;2.00;78.23;102555.31;5176068;28;20073;-82
2022/01/11 02:01:03;;;;;;;2.00;1.90;;;;;;;2.05;78.55;102558.94;5177868;28;20043;-82
2022/01/11 02:03:40;;;;;;;2.00;1.90;;;;;;;2.01;78.36;102557.06;5182584;28;20046;-83
2022/01/11 02:06:16;;;;;;;0.90;0.88;;;;;;;2.04;77.99;102564.94;5172798;28;20474;-83
2022/01/11 02:08:50;;;;;;;2.00;1.90;;;;;;;2.08;77.97;102566.84;5185475;28;20040;-83
2022/01/11 02:11:22;;;;;;;;;;;;;;;2.08;78.28;102582.38;5194887;28;20088;-81
2022/01/11 02:13:52;;;;;;;1.38;1.38;;;;;;;2.12;77.86;102579.06;5165726;28;19917;-84
2022/01/11 02:16:23;;;;;;;3.00;2.83;;;;;;;2.02;77.61;102579.56;5166606;28;20045;-81
2022/01/11 02:18:55;;;;;;;1.65;1.58;;;;;;;2.03;77.98;102578.72;5163636;28;20034;-81
2022/01/11 02:21:25;;;;;;;0.98;0.98;;;;;;;2.01;78.01;102580.38;5153259;28;20133;-81
2022/01/11 02:23:58;;;;;;;0.93;0.93;;;;;;;2.03;78.30;102578.72;5152214;28;20165;-81
2022/01/11 02:26:29;;;;;;;1.50;1.45;;;;;;;2.03;77.98;102576.13;5185307;28;20062;-81
2022/01/11 02:28:59;;;;;;;3.80;3.45;;;;;;;2.06;78.23;102580.56;5183559;28;20120;-81
2022/01/11 02:31:38;;;;;;;1.23;1.23;;;;;;;2.05;78.50;102579.66;5169969;28;20164;-81
2022/01/11 02:34:08;;;;;;;0.80;0.80;;;;;;;2.02;78.20;102582.16;5151137;28;20037;-81
2022/01/11 02:36:39;;;;;;;3.05;2.88;;;;;;;1.91;78.61;102584.31;5172050;28;20045;-81
2022/01/11 02:39:10;;;;;;;1.63;1.52;;;;;;;1.85;78.34;102584.97;5173060;28;20030;-81
2022/01/11 02:41:53;;;;;;;1.00;1.00;;;;;;;1.93;78.76;102580.06;5168704;28;20064;-81
2022/01/11 02:44:24;;;;;;;;;;;;;;;2.00;78.55;102576.03;5188981;28;20038;-82
2022/01/11 02:46:55;;;;;;;1.77;1.67;;;;;;;1.99;78.31;102571.66;5165456;28;19967;-81
2022/01/11 02:49:25;;;;;;;2.70;2.53;;;;;;;1.99;78.51;102569.06;5172576;28;20339;-81
2022/01/11 02:51:56;;;;;;;1.48;1.40;;;;;;;1.97;78.61;102573.31;5139855;28;20041;-80
2022/01/11 02:54:26;;;;;;;3.50;2.08;;;;;;;2.06;78.65;102570.19;5150122;28;20121;-80
2022/01/11 02:56:57;;;;;;;1.70;1.65;;;;;;;2.07;77.94;102572.84;5151631;28;20089;-81
2022/01/11 02:59:27;;;;;;;1.35;1.33;;;;;;;2.10;78.17;102578.16;5174180;28;20038;-81
2022/01/11 03:01:58;;;;;;;5.00;2.92;;;;;;;2.06;77.76;102575.38;5187064;28;20056;-81
2022/01/11 03:04:33;;;;;;;3.63;3.42;;;;;;;2.04;78.82;102573.63;5186305;28;20029;-81
2022/01/11 03:07:04;;;;;;;1.58;1.25;;;;;;;2.11;77.95;102581.59;5155470;28;20038;-82
2022/01/11 03:09:55;;;;;;;;;;;;;;;2.05;77.98;102579.66;5169587;28;20037;-82
2022/01/11 03:12:25;;;;;;;3.97;1.38;;;;;;;2.06;77.88;102581.44;5152550;28;19910;-82
2022/01/11 03:14:59;;;;;;;0.82;0.82;;;;;;;2.04;78.20;102573.63;5170411;28;20073;-82
2022/01/11 03:17:29;;;;;;;4.07;2.45;;;;;;;2.04;78.39;102583.97;5183696;28;20076;-81
2022/01/11 03:20:00;;;;;;;0.93;0.93;;;;;;;2.05;78.58;102584.84;5160128;28;20440;-82
2022/01/11 03:22:31;;;;;;;4.88;3.20;;;;;;;2.05;78.49;102590.00;5165362;28;20043;-82
2022/01/11 03:25:02;;;;;;;2.83;2.58;;;;;;;2.06;78.44;102590.91;5163424;28;20431;-82
2022/01/11 03:27:33;;;;;;;6.57;3.53;;;;;;;2.06;78.35;102598.69;5143650;28;20053;-82
2022/01/11 03:30:03;;;;;;;1.90;1.80;;;;;;;2.06;77.91;102591.78;5165772;28;20046;-81
2022/01/11 03:32:34;;;;;;;2.25;2.15;;;;;;;2.03;77.93;102586.47;5165731;28;20034;-82
2022/01/11 03:35:07;;;;;;;2.22;2.08;;;;;;;2.03;78.39;102591.66;5169168;28;20343;-80
2022/01/11 03:37:39;;;;;;;2.78;2.58;;;;;;;2.03;78.47;102597.72;5168791;28;20088;-80
2022/01/11 03:40:17;;;;;;;1.88;1.80;;;;;;;2.01;78.81;102598.50;5180464;28;20057;-80
2022/01/11 03:42:51;;;;;;;2.08;1.98;;;;;;;2.03;78.88;102607.19;5131669;28;20038;-80
2022/01/11 03:45:22;;;;;;;4.90;2.97;;;;;;;2.00;78.32;102599.31;5147143;28;20038;-80
2022/01/11 03:47:56;;;;;;;1.25;1.25;;;;;;;1.98;78.75;102608.72;5164416;28;20046;-80
2022/01/11 03:50:29;;;;;;;10.85;2.83;;;;;;;1.92;78.64;102624.03;5160706;28;20038;-80
2022/01/11 03:53:14;;;;;;;3.45;3.15;;;;;;;1.94;79.12;102618.09;5133383;28;20027;-80
2022/01/11 03:58:26;;;;;;;1.20;1.20;;;;;;;1.98;78.15;102617.41;5185376;28;20032;-81
2022/01/11 04:00:57;;;;;;;1.23;1.23;;;;;;;2.07;78.38;102622.03;5182169;28;20034;-82
2022/01/11 04:03:28;;;;;;;5.13;4.60;;;;;;;2.03;78.06;102627.91;5189412;28;20177;-80
2022/01/11 04:05:58;;;;;;;6.20;2.95;;;;;;;2.09;78.04;102625.56;5171221;28;20546;-80
2022/01/11 04:08:29;;;;;;;3.53;3.28;;;;;;;2.03;77.83;102627.91;5184447;28;20034;-80
2022/01/11 04:10:59;;;;;;;1.58;1.48;;;;;;;2.07;78.08;102634.13;5190094;28;20040;-81
2022/01/11 04:13:33;;;;;;;1.90;1.80;;;;;;;2.01;78.54;102634.75;5166792;28;20034;-81
2022/01/11 04:16:04;;;;;;;1.80;1.60;;;;;;;2.09;77.49;102641.13;5201312;28;20379;-80
2022/01/11 04:18:34;;;;;;;2.15;2.05;;;;;;;2.10;78.15;102640.28;5187945;28;20375;-81
2022/01/11 04:21:05;;;;;;;3.15;2.95;;;;;;;1.98;78.32;102637.22;5170647;28;20045;-80
2022/01/11 04:23:36;;;;;;;1.70;1.60;;;;;;;1.95;78.11;102629.31;5169092;28;20030;-81
2022/01/11 04:26:06;;;;;;;3.03;2.75;;;;;;;1.99;77.99;102624.31;5153181;28;20450;-80
2022/01/11 04:28:40;;;;;;;1.83;1.73;;;;;;;1.96;78.36;102628.50;5168205;28;20398;-80
2022/01/11 04:31:10;;;;;;;3.50;2.95;;;;;;;1.94;78.10;102617.22;5171510;28;20230;-80
2022/01/11 04:34:07;;;;;;;2.03;1.92;;;;;;;1.89;78.66;102628.25;5180956;28;20082;-80
2022/01/11 04:36:38;;;;;;;4.32;3.92;;;;;;;1.94;78.29;102628.44;5170338;28;20045;-80
2022/01/11 04:39:13;;;;;;;4.05;3.70;;;;;;;2.03;78.55;102634.00;5183384;28;20111;-81
2022/01/11 04:41:44;;;;;;;3.50;3.20;;;;;;;1.95;77.61;102637.06;5178205;28;20030;-79
2022/01/11 04:44:17;;;;;;;2.30;2.20;;;;;;;1.99;78.12;102636.41;5163102;28;20045;-80
2022/01/11 04:46:48;;;;;;;1.27;1.27;;;;;;;1.99;78.03;102634.66;5185501;28;20065;-80
2022/01/11 04:49:21;;;;;;;4.50;4.13;;;;;;;1.98;77.66;102635.53;5159184;28;20293;-80
2022/01/11 04:51:53;;;;;;;2.15;2.05;;;;;;;1.94;78.08;102638.81;5166177;28;20668;-81
2022/01/11 04:54:28;;;;;;;3.15;2.83;;;;;;;1.97;77.90;102632.84;5177732;28;20037;-80
2022/01/11 04:57:04;;;;;;;4.97;1.80;;;;;;;1.98;78.16;102624.25;5136634;28;20047;-80
2022/01/11 04:59:37;;;;;;;7.28;3.28;;;;;;;1.92;78.29;102624.91;5186379;28;20405;-80
2022/01/11 05:02:08;;;;;;;1.00;1.00;;;;;;;2.04;77.51;102634.84;5162790;28;20026;-80
2022/01/11 05:04:47;;;;;;;1.45;1.38;;;;;;;1.99;77.50;102633.81;5169481;28;20032;-81
2022/01/11 05:07:56;;;;;;;1.48;1.40;;;;;;;1.96;77.65;102637.16;5179611;28;20497;-81
2022/01/11 05:10:33;;;;;;;1.40;1.30;;;;;;;1.88;77.92;102629.09;5162019;28;20200;-82
2022/01/11 05:13:03;;;;;;;0.85;0.85;;;;;;;1.93;78.23;102630.97;5148617;28;20117;-81
2022/01/11 05:15:34;;;;;;;2.63;2.45;;;;;;;1.98;77.80;102634.63;5191226;28;20038;-82
2022/01/11 05:18:06;;;;;;;2.53;2.33;;;;;;;1.94;78.03;102636.22;5179630;28;20065;-82
2022/01/11 05:20:40;;;;;;;2.17;2.08;;;;;;;1.98;77.83;102637.22;5175439;28;20025;-81
2022/01/11 05:23:14;;;;;;;3.38;3.17;;;;;;;1.85;78.21;102635.84;5184620;28;20034;-81
2022/01/11 05:25:45;;;;;;;2.47;2.30;;;;;;;1.87;77.96;102637.66;5160831;28;20030;-80
2022/01/11 05:28:15;;;;;;;3.08;2.88;;;;;;;1.88;77.96;102638.56;5178027;28;20133;-81
2022/01/11 05:30:46;;;;;;;3.15;2.80;;;;;;;1.87;77.88;102650.59;5190357;28;20037;-81
2022/01/11 05:33:16;;;;;;;2.42;2.28;;;;;;;1.83;77.43;102645.25;5168412;28;20037;-82
2022/01/11 05:35:47;;;;;;;1.08;1.08;;;;;;;1.85;77.63;102644.50;5180337;28;20121;-81
2022/01/11 05:38:18;;;;;;;3.47;3.17;;;;;;;1.86;77.52;102646.25;5171406;28;20101;-82
2022/01/11 05:40:50;;;;;;;2.65;2.45;;;;;;;1.84;78.27;102647.91;5158273;28;20054;-81
2022/01/11 05:43:20;;;;;;;1.48;1.40;;;;;;;1.82;78.22;102649.56;5168556;28;20110;-81
2022/01/11 05:45:51;;;;;;;0.60;0.60;;;;;;;1.79;78.23;102649.41;5156085;28;20042;-81
2022/01/11 05:48:22;;;;;;;4.05;3.03;;;;;;;1.78;77.52;102647.66;5175704;28;20033;-82
2022/01/11 05:50:56;;;;;;;1.38;1.38;;;;;;;1.77;77.83;102651.09;5181524;28;20045;-80
2022/01/11 05:53:26;;;;;;;3.28;3.08;;;;;;;1.80;77.83;102645.13;5148716;28;20034;-81
2022/01/11 05:55:57;;;;;;;2.58;2.38;;;;;;;1.81;77.92;102652.97;5148296;28;20490;-82
2022/01/11 05:58:27;;;;;;;0.95;0.95;;;;;;;1.82;77.66;102657.31;5164001;28;20188;-81
2022/01/11 06:01:01;;;;;;;2.38;2.25;;;;;;;1.79;78.01;102657.19;5164056;28;20027;-80
2022/01/11 06:03:32;;;;;;;1.45;1.35;;;;;;;1.76;78.04;102656.19;5150754;28;20046;-81
2022/01/11 06:06:02;;;;;;;1.55;1.45;;;;;;;1.72;77.62;102660.34;5141689;28;20528;-81
2022/01/11 06:08:33;;;;;;;1.52;1.42;;;;;;;1.69;78.01;102657.66;5150953;28;20110;-81
2022/01/11 06:11:04;;;;;;;0.75;0.75;;;;;;;1.71;78.14;102651.72;5168934;28;20053;-82
2022/01/11 06:13:35;;;;;;;2.47;2.28;;;;;;;1.71;77.80;102666.34;5166723;28;20030;-81
2022/01/11 06:16:05;;;;;;;2.42;2.30;;;;;;;1.77;77.86;102663.13;5167073;28;20068;-82
2022/01/11 06:18:36;;;;;;;3.42;1.80;;;;;;;1.75;77.54;102660.47;5154911;28;20026;-82
2022/01/11 06:21:07;;;;;;;7.65;2.40;;;;;;;1.75;77.77;102657.91;5183850;28;20038;-81
2022/01/11 06:23:38;;;;;;;2.83;2.63;;;;;;;1.72;77.78;102665.53;5163720;28;20513;-80
2022/01/11 06:26:08;;;;;;;1.65;1.55;;;;;;;1.69;77.86;102668.00;5153185;28;20460;-80
2022/01/11 06:28:39;;;;;;;1.45;1.35;;;;;;;1.66;78.24;102670.47;5179778;28;20406;-80
2022/01/11 06:31:10;;;;;;;5.80;1.80;;;;;;;1.65;77.93;102663.50;5148862;28;20307;-81
2022/01/11 06:33:41;;;;;;;3.45;3.15;;;;;;;1.62;77.80;102663.38;5175759;28;20041;-81
2022/01/11 06:36:12;;;;;;;1.67;1.58;;;;;;;1.57;78.16;102670.97;5168070;28;20042;-81
2022/01/11 06:38:42;;;;;;;1.05;1.05;;;;;;;1.64;77.94;102674.69;5168018;28;20034;-81
2022/01/11 06:41:13;;;;;;;0.73;0.73;;;;;;;1.59;78.23;102673.63;5166745;28;20050;-81
2022/01/11 06:43:45;;;;;;;2.42;2.22;;;;;;;1.66;77.51;102673.91;5169105;28;20046;-81
2022/01/11 06:46:15;;;;;;;5.25;3.72;;;;;;;1.61;78.13;102677.16;5185832;28;20042;-81
2022/01/11 06:48:46;;;;;;;2.47;2.38;;;;;;;1.62;77.57;102676.31;5163526;28;20108;-81
2022/01/11 06:51:18;;;;;;;1.45;1.38;;;;;;;1.62;77.11;102679.81;5166995;28;20037;-81
2022/01/11 06:53:48;;;;;;;3.03;2.75;;;;;;;1.62;77.57;102679.81;5179195;28;20092;-81
2022/01/11 06:56:20;;;;;;;2.33;2.15;;;;;;;1.58;77.76;102685.66;5149270;28;20053;-81
2022/01/11 06:58:50;;;;;;;0.90;0.90;;;;;;;1.57;77.93;102689.09;5151213;28;20025;-82
2022/01/11 07:01:21;;;;;;;1.48;1.42;;;;;;;1.59;78.31;102694.31;5173881;28;20418;-81
2022/01/11 07:03:51;;;;;;;0.50;0.50;;;;;;;1.61;77.92;102703.03;5184814;28;20051;-81
2022/01/11 07:06:22;;;;;;;3.03;1.77;;;;;;;1.53;78.29;102711.34;5165156;28;20052;-81
2022/01/11 07:08:55;;;;;;;2.72;2.53;;;;;;;1.52;78.00;102700.94;5167064;28;20037;-82
2022/01/11 07:11:26;;;;;;;1.83;1.73;;;;;;;1.57;77.91;102707.19;5148814;28;20061;-82
2022/01/11 07:13:56;;;;;;;1.00;1.00;;;;;;;1.53;78.10;102706.16;5166768;28;20034;-81
2022/01/11 07:16:27;;;;;;;4.63;3.17;;;;;;;1.63;77.98;102703.97;5149719;28;20026;-81
2022/01/11 07:18:57;;;;;;;0.88;0.88;;;;;;;1.63;77.31;102709.13;5183681;28;20044;-80
2022/01/11 07:21:28;;;;;;;1.17;1.17;;;;;;;1.65;77.13;102713.59;5148174;28;20061;-82
2022/01/11 07:23:58;;;;;;;2.22;2.13;;;;;;;1.61;77.43;102715.97;5145661;28;20128;-82
2022/01/11 07:26:29;;;;;;;2.65;2.47;;;;;;;1.57;77.71;102714.97;5180644;28;20040;-81
2022/01/11 07:28:59;;;;;;;1.73;1.63;;;;;;;1.61;77.76;102722.03;5183867;28;20034;-83
2022/01/11 07:31:30;;;;;;;1.17;1.17;;;;;;;1.54;77.99;102726.03;5163928;28;20293;-82
2022/01/11 07:34:03;;;;;;;1.85;1.75;;;;;;;1.54;78.03;102720.88;5164747;28;20135;-82
2022/01/11 07:36:37;;;;;;;2.47;2.33;;;;;;;1.53;77.39;102729.44;5154832;28;20827;-82
2022/01/11 07:39:08;;;;;;;0.95;0.95;;;;;;;1.59;77.71;102736.59;5167162;28;20504;-83
2022/01/11 07:41:42;;;;;;;1.77;1.65;;;;;;;1.55;77.86;102735.56;5179830;28;20057;-82
2022/01/11 07:44:12;;;;;;;;;;;;;;;1.52;77.92;102735.47;5180478;28;20046;-82
2022/01/11 07:46:46;;;;;;;2.05;1.95;;;;;;;1.48;78.08;102741.31;5167942;28;19925;-82
2022/01/11 07:49:17;;;;;;;1.75;1.65;;;;;;;1.53;78.02;102734.63;5151197;28;20033;-82
2022/01/11 07:51:48;;;;;;;1.60;1.50;;;;;;;1.54;78.32;102735.53;5169646;28;20131;-83
2022/01/11 07:54:21;;;;;;;0.40;0.40;;;;;;;1.51;77.78;102736.28;5170327;28;20579;-82
2022/01/11 07:56:52;;;;;;;3.00;2.72;;;;;;;1.49;78.14;102737.03;5160701;28;20034;-82
2022/01/11 07:59:22;;;;;;;1.27;1.27;;;;;;;1.48;77.80;102736.13;5171078;28;20034;-82
2022/01/11 08:01:52;;;;;;;1.73;1.63;;;;;;;1.51;77.71;102731.09;5167446;28;20033;-83
2022/01/11 08:04:23;;;;;;;1.20;1.20;;;;;;;1.49;78.41;102737.03;5160976;28;20042;-82
2022/01/11 08:06:54;;;;;;;0.85;0.85;;;;;;;1.53;78.01;102733.75;5164033;28;20038;-82
2022/01/11 08:09:25;;;;;;;2.85;2.53;;;;;;;1.55;77.87;102745.94;5165445;28;20517;-82
2022/01/11 08:11:58;;;;;;;1.00;1.00;;;;;;;1.53;78.21;102757.03;5166070;28;20045;-82
2022/01/11 08:14:29;;;;;;;1.08;1.05;;;;;;;1.61;78.10;102760.84;5152105;28;20032;-82
2022/01/11 08:16:59;;;;;;;1.48;1.48;;;;;;;1.59;77.82;102756.41;5153096;28;20038;-82
2022/01/11 08:19:32;;;;;;;1.23;1.23;;;;;;;1.63;77.36;102761.78;5152390;28;20026;-82
2022/01/11 08:22:03;;;;;;;1.80;1.27;;;;;;;1.67;77.47;102760.22;5166084;28;20415;-82
2022/01/11 08:24:39;;;;;;;4.38;2.15;;;;;;;1.64;77.11;102762.66;5189112;28;20040;-83
2022/01/11 08:27:10;;;;;;;2.58;2.47;;;;;;;1.59;77.66;102767.63;5170476;28;20149;-82
2022/01/11 08:29:42;;;;;;;1.85;1.75;;;;;;;1.61;77.27;102776.34;5195676;23;20055;-79
2022/01/11 08:32:12;;;;;;;0.50;0.50;;;;;;;1.61;77.47;102773.78;5173739;28;20033;-79
2022/01/11 08:34:43;;;;;;;0.77;0.77;;;;;;;1.52;77.99;102774.28;5156220;28;20413;-78
2022/01/11 08:37:16;;;;;;;1.05;1.05;;;;;;;1.54;77.74;102775.19;5186733;28;20034;-79
2022/01/11 08:39:47;;;;;;;1.75;1.65;;;;;;;1.59;78.02;102784.88;5175556;28;20490;-79
2022/01/11 08:42:17;;;;;;;5.30;4.18;;;;;;;1.62;77.67;102785.00;5181035;28;20030;-80
2022/01/11 08:44:49;;;;;;;1.08;1.05;;;;;;;1.66;77.19;102785.19;5201228;28;20029;-79
2022/01/11 08:47:20;;;;;;;2.08;1.98;;;;;;;1.61;77.50;102793.59;5176567;28;20022;-81
2022/01/11 08:49:51;;;;;;;6.20;5.70;;;;;;;1.58;78.56;102794.31;5171566;28;20425;-81
2022/01/11 08:52:21;;;;;;;3.25;3.05;;;;;;;1.53;78.23;102791.53;5152788;28;20033;-79
2022/01/11 08:54:52;;;;;;;14.00;2.83;;;;;;;1.57;77.86;102790.88;5147458;28;20034;-79
2022/01/11 08:57:29;;;;;;;1.30;1.30;;;;;;;1.56;78.42;102785.63;5134640;28;20529;-80
2022/01/11 09:00:08;;;;;;;2.75;2.55;;;;;;;1.57;78.72;102783.09;5147582;28;20043;-80
2022/01/11 09:02:39;;;;;;;1.55;1.45;;;;;;;1.66;78.43;102781.75;5152048;28;20096;-80
2022/01/11 09:05:09;;;;;;;0.73;0.73;;;;;;;1.68;78.10;102780.09;5135252;28;20054;-80
2022/01/11 09:07:41;;;;;;;4.50;4.18;;;;;;;1.74;77.54;102782.94;5151474;28;20036;-80
2022/01/11 09:10:12;;;;;;;1.15;1.15;;;;;;;1.75;77.86;102791.59;5139457;28;20088;-80
2022/01/11 09:12:50;;;;;;;2.67;2.47;;;;;;;1.72;77.72;102782.00;5180422;28;20029;-80
2022/01/11 09:15:20;;;;;;;0.82;0.82;;;;;;;1.70;78.41;102783.63;5150665;28;20041;-81
2022/01/11 09:17:51;;;;;;;2.85;1.52;;;;;;;1.72;78.40;102782.91;5158642;28;20041;-81
2022/01/11 09:20:22;;;;;;;1.23;1.23;;;;;;;1.76;77.85;102789.09;5167539;28;20049;-81
2022/01/11 09:22:53;;;;;;;1.52;1.48;;;;;;;1.82;78.12;102794.50;5181149;28;20084;-81
2022/01/11 09:25:24;;;;;;;2.55;2.42;;;;;;;1.83;78.34;102798.88;5166003;28;20069;-81
2022/01/11 09:27:54;;;;;;;1.52;1.48;;;;;;;1.74;78.06;102798.47;5166438;28;20022;-80
2022/01/11 09:30:25;;;;;;;3.95;1.42;;;;;;;1.83;78.44;102801.47;5167522;28;20046;-81
2022/01/11 09:32:56;;;;;;;0.75;0.75;;;;;;;1.87;78.20;102797.28;5156275;28;20376;-80
2022/01/11 09:35:27;;;;;;;1.38;1.38;;;;;;;1.86;78.13;102791.22;5183651;28;20129;-80
2022/01/11 09:37:57;;;;;;;1.35;1.30;;;;;;;1.88;78.10;102805.13;5155821;28;20511;-80
2022/01/11 09:40:28;;;;;;;2.47;2.38;;;;;;;1.85;78.74;102799.84;5155942;28;20042;-81
2022/01/11 09:43:14;;;;;;;2.00;1.90;;;;;;;1.88;78.32;102809.44;5174888;28;20520;-81
2022/01/11 09:45:45;;;;;;;6.20;5.10;;;;;;;1.91;78.31;102804.34;5151633;28;20521;-81
2022/01/11 09:48:20;;;;;;;1.17;1.17;;;;;;;2.01;78.52;102803.06;5166071;28;20350;-82
2022/01/11 09:50:51;;;;;;;1.42;1.33;;;;;;;1.95;78.28;102806.28;5200155;28;20042;-80
2022/01/11 09:53:22;;;;;;;3.75;2.35;;;;;;;2.07;78.10;102807.63;5171424;28;20330;-81
2022/01/11 09:55:53;;;;;;;0.77;0.77;;;;;;;2.07;77.97;102810.22;5162815;28;20042;-81
2022/01/11 09:58:23;;;;;;;1.60;1.50;;;;;;;2.03;78.66;102810.06;5162775;28;20097;-81
2022/01/11 10:00:54;;;;;;;1.90;1.80;;;;;;;2.12;77.96;102809.56;5165587;28;20084;-80
2022/01/11 10:03:25;;;;;;;3.00;2.80;;;;;;;2.10;78.68;102807.72;5151468;28;20076;-81
2022/01/11 10:05:56;;;;;;;0.82;0.82;;;;;;;2.13;78.62;102800.97;5152343;28;20042;-81
2022/01/11 10:08:30;;;;;;;1.85;1.75;;;;;;;2.18;79.08;102802.06;5148989;28;20044;-81
2022/01/11 10:11:00;;;;;;;1.17;1.17;;;;;;;2.21;78.52;102796.13;5166138;28;20517;-84
2022/01/11 10:13:40;;;;;;;1.13;1.13;;;;;;;2.18;78.74;102793.38;5165175;28;20037;-82
2022/01/11 10:16:18;;;;;;;1.48;1.38;;;;;;;2.25;78.39;102791.94;5150049;28;20108;-83
2022/01/11 10:19:24;;;;;;;1.98;1.88;;;;;;;2.26;78.70;102788.53;5184909;28;20037;-82
2022/01/11 10:22:03;;;;;;;4.82;2.25;;;;;;;2.21;79.26;102788.34;5192855;28;20600;-82
2022/01/11 10:24:42;;;;;;;2.00;1.90;;;;;;;2.27;79.26;102783.41;5168296;28;20409;-82
2022/01/11 10:27:14;;;;;;;0.57;0.57;;;;;;;2.33;79.40;102790.53;5170609;28;20041;-82
2022/01/11 10:30:12;;;;;;;2.95;2.75;;;;;;;2.51;78.97;102787.78;5165671;28;20449;-82
2022/01/11 10:32:45;;;;;;;1.40;1.30;;;;;;;2.27;79.13;102795.50;5182248;28;20371;-82
2022/01/11 10:35:20;;;;;;;3.90;3.70;;;;;;;2.47;78.23;102798.88;5197885;28;20048;-82
2022/01/11 10:37:53;;;;;;;3.15;2.88;;;;;;;2.30;79.00;102803.34;5179862;28;20285;-82
2022/01/11 10:40:34;;;;;;;2.47;2.38;;;;;;;2.42;79.07;102803.88;5176047;28;20138;-83
2022/01/11 10:43:13;;;;;;;2.50;2.33;;;;;;;2.23;78.98;102801.34;5167956;28;20038;-82
2022/01/11 10:45:47;;;;;;;1.45;1.35;;;;;;;2.41;78.56;102798.59;5146260;28;20038;-82
2022/01/11 10:48:36;;;;;;;1.63;1.55;;;;;;;2.17;78.99;102799.38;5151494;28;20489;-83
2022/01/11 10:51:14;;;;;;;2.38;2.22;;;;;;;2.15;79.16;102798.47;5175141;28;20117;-81
2022/01/11 10:53:49;;;;;;;2.10;1.88;;;;;;;2.31;79.02;102802.53;5162497;28;20176;-82
2022/01/11 10:56:19;;;;;;;1.90;1.80;;;;;;;2.31;78.92;102802.53;5171878;28;20081;-82
2022/01/11 10:59:09;;;;;;;2.97;1.77;;;;;;;2.33;79.06;102808.69;5166376;28;20125;-82
2022/01/11 11:01:42;;;;;;;1.17;1.17;;;;;;;2.42;78.92;102803.88;5148100;28;20075;-81
2022/01/11 11:04:30;;;;;;;2.30;2.15;;;;;;;2.45;78.61;102809.16;5152139;28;20029;-82
2022/01/11 11:07:14;;;;;;;2.35;2.25;;;;;;;2.42;79.09;102811.66;5179280;28;20213;-82
2022/01/11 11:10:02;;;;;;;1.95;1.70;;;;;;;2.28;79.52;102812.78;5183775;28;20028;-82
2022/01/11 11:12:33;;;;;;;1.33;1.33;;;;;;;2.33;79.73;102808.69;5174851;28;20033;-80
2022/01/11 11:15:05;;;;;;;3.47;3.25;;;;;;;2.54;79.27;102812.94;5190560;28;20580;-81
2022/01/11 11:17:37;;;;;;;2.13;2.03;;;;;;;2.50;79.07;102812.84;5159700;28;20083;-81
2022/01/11 11:20:10;;;;;;;2.88;2.33;;;;;;;2.33;80.08;102811.28;5166433;28;20045;-81
2022/01/11 11:22:41;;;;;;;2.45;2.35;;;;;;;2.42;79.65;102810.75;5173169;28;20026;-81
2022/01/11 11:25:11;;;;;;;0.88;0.88;;;;;;;2.34;80.39;102813.03;5185379;28;20045;-80
2022/01/11 11:27:42;;;;;;;4.90;1.63;;;;;;;2.35;80.52;102812.22;5169184;28;20052;-81
2022/01/11 11:30:12;;;;;;;0.77;0.77;;;;;;;2.50;79.69;102818.03;5179937;28;20084;-80
2022/01/11 11:32:46;;;;;;;0.88;0.88;;;;;;;2.47;79.52;102810.13;5180998;28;20033;-81
2022/01/11 11:35:17;;;;;;;1.33;1.23;;;;;;;2.55;79.69;102807.84;5165393;28;20037;-81
2022/01/11 11:37:54;;;;;;;1.63;1.52;;;;;;;2.55;79.83;102815.63;5169429;28;20033;-80
2022/01/11 11:40:27;;;;;;;3.22;1.83;;;;;;;2.60;79.76;102819.25;5154085;28;20125;-81
2022/01/11 11:42:59;;;;;;;1.67;1.58;;;;;;;2.59;79.36;102816.63;5149248;28;20517;-81
2022/01/11 11:45:33;;;;;;;1.42;1.42;;;;;;;2.68;79.74;102812.69;5161345;28;20553;-81
2022/01/11 11:48:11;;;;;;;3.83;2.83;;;;;;;2.68;79.87;102812.69;5147929;28;20458;-82
2022/01/11 11:50:47;;;;;;;2.13;2.00;;;;;;;2.64;79.87;102807.31;5150369;28;20034;-82
2022/01/11 11:53:28;;;;;;;2.17;2.08;;;;;;;2.78;79.20;102816.50;5143075;28;20039;-81
2022/01/11 11:56:26;;;;;;;3.42;3.15;;;;;;;2.80;79.42;102816.59;5169736;28;20049;-81
2022/01/11 11:58:58;;;;;;;2.90;2.70;;;;;;;2.80;79.06;102809.69;5163529;28;20390;-81
2022/01/11 12:01:47;;;;;;;4.15;2.70;;;;;;;2.79;79.00;102823.47;5164319;28;20415;-81
2022/01/11 12:04:27;;;;;;;1.88;1.77;;;;;;;2.83;79.84;102814.09;5168536;28;20160;-81